sensor_id;sensor_type;location;lat;lon;timestamp;P1;durP1;ratioP1;P2;durP2;ratioP2
10114;SDS011;5097;43.260;27.812;2023-07-20T00:02:13;6.82;;;6.10;;
10114;SDS011;5097;43.260;27.812;2023-07-20T00:04:57;7.28;;;6.57;;
10114;SDS011;5097;43.260;27.812;2023-07-20T00:07:41;6.50;;;5.88;;
10114;SDS011;5097;43.260;27.812;2023-07-20T00:10:25;6.32;;;5.82;;
10114;SDS011;5097;43.260;27.812;2023-07-20T00:13:09;6.90;;;6.20;;
10114;SDS011;5097;43.260;27.812;2023-07-20T00:15:55;7.10;;;5.65;;
10114;SDS011;5097;43.260;27.812;2023-07-20T00:18:39;6.45;;;5.85;;
10114;SDS011;5097;43.260;27.812;2023-07-20T00:21:23;8.55;;;6.20;;
10114;SDS011;5097;43.260;27.812;2023-07-20T00:24:08;7.20;;;6.50;;
10114;SDS011;5097;43.260;27.812;2023-07-20T00:26:52;6.50;;;5.90;;
10114;SDS011;5097;43.260;27.812;2023-07-20T00:29:36;7.18;;;6.47;;
10114;SDS011;5097;43.260;27.812;2023-07-20T00:32:21;8.85;;;6.55;;
10114;SDS011;5097;43.260;27.812;2023-07-20T00:35:06;7.18;;;6.57;;
10114;SDS011;5097;43.260;27.812;2023-07-20T00:37:52;7.97;;;5.85;;
10114;SDS011;5097;43.260;27.812;2023-07-20T00:40:36;7.30;;;6.70;;
10114;SDS011;5097;43.260;27.812;2023-07-20T00:43:22;6.18;;;5.60;;
10114;SDS011;5097;43.260;27.812;2023-07-20T00:46:07;6.38;;;5.82;;
10114;SDS011;5097;43.260;27.812;2023-07-20T00:48:53;9.35;;;6.22;;
10114;SDS011;5097;43.260;27.812;2023-07-20T00:51:37;6.93;;;5.70;;
10114;SDS011;5097;43.260;27.812;2023-07-20T00:54:23;7.60;;;6.13;;
10114;SDS011;5097;43.260;27.812;2023-07-20T00:57:07;7.35;;;6.68;;
10114;SDS011;5097;43.260;27.812;2023-07-20T00:59:53;6.82;;;5.97;;
10114;SDS011;5097;43.260;27.812;2023-07-20T01:02:38;5.85;;;5.38;;
10114;SDS011;5097;43.260;27.812;2023-07-20T01:05:26;6.85;;;6.15;;
10114;SDS011;5097;43.260;27.812;2023-07-20T01:08:21;7.13;;;5.82;;
10114;SDS011;5097;43.260;27.812;2023-07-20T01:11:16;7.07;;;6.38;;
10114;SDS011;5097;43.260;27.812;2023-07-20T01:14:03;6.22;;;5.63;;
10114;SDS011;5097;43.260;27.812;2023-07-20T01:16:48;7.38;;;5.80;;
10114;SDS011;5097;43.260;27.812;2023-07-20T01:19:34;6.55;;;6.00;;
10114;SDS011;5097;43.260;27.812;2023-07-20T01:22:27;7.82;;;5.97;;
10114;SDS011;5097;43.260;27.812;2023-07-20T01:25:33;6.35;;;5.78;;
10114;SDS011;5097;43.260;27.812;2023-07-20T01:28:35;6.70;;;6.10;;
10114;SDS011;5097;43.260;27.812;2023-07-20T01:31:32;7.50;;;5.68;;
10114;SDS011;5097;43.260;27.812;2023-07-20T01:34:18;8.23;;;6.55;;
10114;SDS011;5097;43.260;27.812;2023-07-20T01:37:05;6.57;;;5.88;;
10114;SDS011;5097;43.260;27.812;2023-07-20T01:39:51;7.63;;;6.10;;
10114;SDS011;5097;43.260;27.812;2023-07-20T01:42:38;6.95;;;6.03;;
10114;SDS011;5097;43.260;27.812;2023-07-20T01:45:21;7.15;;;6.45;;
10114;SDS011;5097;43.260;27.812;2023-07-20T01:48:07;6.45;;;5.90;;
10114;SDS011;5097;43.260;27.812;2023-07-20T01:50:51;6.20;;;5.65;;
10114;SDS011;5097;43.260;27.812;2023-07-20T01:53:36;9.25;;;6.10;;
10114;SDS011;5097;43.260;27.812;2023-07-20T01:56:20;6.55;;;6.05;;
10114;SDS011;5097;43.260;27.812;2023-07-20T01:59:05;8.70;;;6.75;;
10114;SDS011;5097;43.260;27.812;2023-07-20T02:01:48;8.10;;;6.22;;
10114;SDS011;5097;43.260;27.812;2023-07-20T02:04:34;8.15;;;6.60;;
10114;SDS011;5097;43.260;27.812;2023-07-20T02:07:18;9.63;;;6.15;;
10114;SDS011;5097;43.260;27.812;2023-07-20T02:10:02;7.10;;;6.50;;
10114;SDS011;5097;43.260;27.812;2023-07-20T02:12:47;6.70;;;6.10;;
10114;SDS011;5097;43.260;27.812;2023-07-20T02:15:31;8.50;;;7.80;;
10114;SDS011;5097;43.260;27.812;2023-07-20T02:18:15;11.05;;;8.40;;
10114;SDS011;5097;43.260;27.812;2023-07-20T02:21:00;10.77;;;8.32;;
10114;SDS011;5097;43.260;27.812;2023-07-20T02:23:44;10.43;;;9.35;;
10114;SDS011;5097;43.260;27.812;2023-07-20T02:26:28;9.48;;;8.68;;
10114;SDS011;5097;43.260;27.812;2023-07-20T02:29:12;11.35;;;7.32;;
10114;SDS011;5097;43.260;27.812;2023-07-20T02:31:56;11.73;;;5.82;;
10114;SDS011;5097;43.260;27.812;2023-07-20T02:34:40;10.40;;;6.75;;
10114;SDS011;5097;43.260;27.812;2023-07-20T02:37:25;7.50;;;5.82;;
10114;SDS011;5097;43.260;27.812;2023-07-20T02:40:09;10.50;;;6.15;;
10114;SDS011;5097;43.260;27.812;2023-07-20T02:42:54;6.95;;;6.35;;
10114;SDS011;5097;43.260;27.812;2023-07-20T02:45:39;9.10;;;7.15;;
10114;SDS011;5097;43.260;27.812;2023-07-20T02:48:25;10.68;;;7.40;;
10114;SDS011;5097;43.260;27.812;2023-07-20T02:51:09;15.75;;;9.50;;
10114;SDS011;5097;43.260;27.812;2023-07-20T02:53:55;21.65;;;10.85;;
10114;SDS011;5097;43.260;27.812;2023-07-20T02:56:39;22.10;;;14.73;;
10114;SDS011;5097;43.260;27.812;2023-07-20T02:59:23;11.48;;;10.23;;
10114;SDS011;5097;43.260;27.812;2023-07-20T03:02:07;14.07;;;11.35;;
10114;SDS011;5097;43.260;27.812;2023-07-20T03:04:52;10.60;;;8.90;;
10114;SDS011;5097;43.260;27.812;2023-07-20T03:07:36;12.35;;;9.50;;
10114;SDS011;5097;43.260;27.812;2023-07-20T03:10:21;13.73;;;10.00;;
10114;SDS011;5097;43.260;27.812;2023-07-20T03:13:05;25.42;;;11.02;;
10114;SDS011;5097;43.260;27.812;2023-07-20T03:15:51;8.48;;;7.55;;
10114;SDS011;5097;43.260;27.812;2023-07-20T03:18:37;12.88;;;10.23;;
10114;SDS011;5097;43.260;27.812;2023-07-20T03:21:22;10.82;;;8.55;;
10114;SDS011;5097;43.260;27.812;2023-07-20T03:24:06;25.17;;;17.23;;
10114;SDS011;5097;43.260;27.812;2023-07-20T03:26:52;12.50;;;9.70;;
10114;SDS011;5097;43.260;27.812;2023-07-20T03:29:36;8.95;;;7.10;;
10114;SDS011;5097;43.260;27.812;2023-07-20T03:32:20;8.73;;;7.18;;
10114;SDS011;5097;43.260;27.812;2023-07-20T03:35:05;10.50;;;7.25;;
10114;SDS011;5097;43.260;27.812;2023-07-20T03:37:49;11.63;;;7.53;;
10114;SDS011;5097;43.260;27.812;2023-07-20T03:40:33;13.50;;;8.35;;
10114;SDS011;5097;43.260;27.812;2023-07-20T03:43:19;19.85;;;10.65;;
10114;SDS011;5097;43.260;27.812;2023-07-20T03:46:03;14.93;;;8.15;;
10114;SDS011;5097;43.260;27.812;2023-07-20T03:48:49;12.93;;;7.28;;
10114;SDS011;5097;43.260;27.812;2023-07-20T03:51:33;15.70;;;6.75;;
10114;SDS011;5097;43.260;27.812;2023-07-20T03:54:17;17.02;;;6.82;;
10114;SDS011;5097;43.260;27.812;2023-07-20T03:57:01;11.02;;;6.72;;
10114;SDS011;5097;43.260;27.812;2023-07-20T03:59:47;11.90;;;6.20;;
10114;SDS011;5097;43.260;27.812;2023-07-20T04:02:32;14.68;;;6.03;;
10114;SDS011;5097;43.260;27.812;2023-07-20T04:05:16;15.15;;;6.22;;
10114;SDS011;5097;43.260;27.812;2023-07-20T04:08:00;13.02;;;6.45;;
10114;SDS011;5097;43.260;27.812;2023-07-20T04:10:44;12.93;;;6.10;;
10114;SDS011;5097;43.260;27.812;2023-07-20T04:13:28;28.77;;;7.53;;
10114;SDS011;5097;43.260;27.812;2023-07-20T04:16:17;13.73;;;6.35;;
10114;SDS011;5097;43.260;27.812;2023-07-20T04:19:02;16.02;;;6.20;;
10114;SDS011;5097;43.260;27.812;2023-07-20T04:21:46;19.48;;;6.65;;
10114;SDS011;5097;43.260;27.812;2023-07-20T04:24:30;14.48;;;7.68;;
10114;SDS011;5097;43.260;27.812;2023-07-20T04:27:14;21.75;;;6.65;;
10114;SDS011;5097;43.260;27.812;2023-07-20T04:29:59;14.20;;;7.82;;
10114;SDS011;5097;43.260;27.812;2023-07-20T04:32:47;16.73;;;7.75;;
10114;SDS011;5097;43.260;27.812;2023-07-20T04:35:45;18.27;;;8.13;;
10114;SDS011;5097;43.260;27.812;2023-07-20T04:38:36;21.88;;;7.85;;
10114;SDS011;5097;43.260;27.812;2023-07-20T04:41:34;16.20;;;7.05;;
10114;SDS011;5097;43.260;27.812;2023-07-20T04:44:18;11.45;;;7.00;;
10114;SDS011;5097;43.260;27.812;2023-07-20T04:47:03;12.10;;;6.60;;
10114;SDS011;5097;43.260;27.812;2023-07-20T04:49:52;16.92;;;6.63;;
10114;SDS011;5097;43.260;27.812;2023-07-20T04:52:36;14.13;;;7.45;;
10114;SDS011;5097;43.260;27.812;2023-07-20T04:55:29;10.45;;;7.28;;
10114;SDS011;5097;43.260;27.812;2023-07-20T04:58:16;11.63;;;6.63;;
10114;SDS011;5097;43.260;27.812;2023-07-20T05:01:01;14.13;;;7.35;;
10114;SDS011;5097;43.260;27.812;2023-07-20T05:03:47;14.88;;;6.90;;
10114;SDS011;5097;43.260;27.812;2023-07-20T05:06:34;14.90;;;7.03;;
10114;SDS011;5097;43.260;27.812;2023-07-20T05:09:18;14.07;;;6.40;;
10114;SDS011;5097;43.260;27.812;2023-07-20T05:12:03;9.75;;;6.18;;
10114;SDS011;5097;43.260;27.812;2023-07-20T05:14:47;11.65;;;6.85;;
10114;SDS011;5097;43.260;27.812;2023-07-20T05:17:32;20.98;;;6.93;;
10114;SDS011;5097;43.260;27.812;2023-07-20T05:20:16;16.40;;;6.88;;
10114;SDS011;5097;43.260;27.812;2023-07-20T05:35:47;18.20;;;5.90;;
10114;SDS011;5097;43.260;27.812;2023-07-20T05:38:31;9.30;;;5.60;;
10114;SDS011;5097;43.260;27.812;2023-07-20T05:41:15;9.50;;;5.18;;
10114;SDS011;5097;43.260;27.812;2023-07-20T05:43:59;18.50;;;5.20;;
10114;SDS011;5097;43.260;27.812;2023-07-20T05:46:43;14.57;;;5.03;;
10114;SDS011;5097;43.260;27.812;2023-07-20T05:49:38;12.88;;;4.80;;
10114;SDS011;5097;43.260;27.812;2023-07-20T05:52:24;16.75;;;5.55;;
10114;SDS011;5097;43.260;27.812;2023-07-20T05:55:08;8.75;;;5.28;;
10114;SDS011;5097;43.260;27.812;2023-07-20T05:57:52;14.80;;;5.97;;
10114;SDS011;5097;43.260;27.812;2023-07-20T06:00:38;10.45;;;5.47;;
10114;SDS011;5097;43.260;27.812;2023-07-20T06:03:22;19.63;;;5.43;;
10114;SDS011;5097;43.260;27.812;2023-07-20T06:06:06;13.90;;;4.65;;
10114;SDS011;5097;43.260;27.812;2023-07-20T06:08:53;10.30;;;3.95;;
10114;SDS011;5097;43.260;27.812;2023-07-20T06:11:37;17.70;;;4.55;;
10114;SDS011;5097;43.260;27.812;2023-07-20T06:14:21;10.63;;;4.45;;
10114;SDS011;5097;43.260;27.812;2023-07-20T06:17:05;11.13;;;4.57;;
10114;SDS011;5097;43.260;27.812;2023-07-20T06:19:49;11.10;;;3.67;;
10114;SDS011;5097;43.260;27.812;2023-07-20T06:22:33;8.80;;;3.65;;
10114;SDS011;5097;43.260;27.812;2023-07-20T06:25:19;6.40;;;3.60;;
10114;SDS011;5097;43.260;27.812;2023-07-20T06:28:04;8.93;;;3.63;;
10114;SDS011;5097;43.260;27.812;2023-07-20T06:30:48;10.55;;;3.72;;
10114;SDS011;5097;43.260;27.812;2023-07-20T06:33:33;11.10;;;3.45;;
10114;SDS011;5097;43.260;27.812;2023-07-20T06:36:18;9.18;;;3.58;;
10114;SDS011;5097;43.260;27.812;2023-07-20T06:39:02;8.90;;;2.88;;
10114;SDS011;5097;43.260;27.812;2023-07-20T06:41:51;4.65;;;2.47;;
10114;SDS011;5097;43.260;27.812;2023-07-20T06:44:37;10.25;;;2.90;;
10114;SDS011;5097;43.260;27.812;2023-07-20T06:47:21;10.52;;;3.22;;
10114;SDS011;5097;43.260;27.812;2023-07-20T06:50:06;7.03;;;3.67;;
10114;SDS011;5097;43.260;27.812;2023-07-20T06:52:50;7.18;;;3.80;;
10114;SDS011;5097;43.260;27.812;2023-07-20T06:55:35;17.23;;;4.25;;
10114;SDS011;5097;43.260;27.812;2023-07-20T06:58:25;12.30;;;4.80;;
10114;SDS011;5097;43.260;27.812;2023-07-20T07:05:11;13.50;;;4.00;;
10114;SDS011;5097;43.260;27.812;2023-07-20T07:07:59;8.45;;;3.53;;
10114;SDS011;5097;43.260;27.812;2023-07-20T07:10:43;10.07;;;3.92;;
10114;SDS011;5097;43.260;27.812;2023-07-20T07:13:29;6.95;;;3.30;;
10114;SDS011;5097;43.260;27.812;2023-07-20T07:16:13;10.88;;;3.47;;
10114;SDS011;5097;43.260;27.812;2023-07-20T07:19:02;11.23;;;4.20;;
10114;SDS011;5097;43.260;27.812;2023-07-20T07:21:48;7.80;;;3.53;;
10114;SDS011;5097;43.260;27.812;2023-07-20T07:24:32;10.25;;;3.28;;
10114;SDS011;5097;43.260;27.812;2023-07-20T07:27:17;7.30;;;2.85;;
10114;SDS011;5097;43.260;27.812;2023-07-20T07:30:03;5.57;;;2.85;;
10114;SDS011;5097;43.260;27.812;2023-07-20T07:32:49;8.93;;;3.33;;
10114;SDS011;5097;43.260;27.812;2023-07-20T07:35:33;5.82;;;3.05;;
10114;SDS011;5097;43.260;27.812;2023-07-20T07:38:18;11.63;;;3.22;;
10114;SDS011;5097;43.260;27.812;2023-07-20T07:41:22;8.77;;;3.10;;
10114;SDS011;5097;43.260;27.812;2023-07-20T07:44:06;10.82;;;3.78;;
10114;SDS011;5097;43.260;27.812;2023-07-20T07:46:51;7.30;;;3.30;;
10114;SDS011;5097;43.260;27.812;2023-07-20T07:49:36;5.03;;;2.80;;
10114;SDS011;5097;43.260;27.812;2023-07-20T07:52:20;8.55;;;3.30;;
10114;SDS011;5097;43.260;27.812;2023-07-20T07:55:05;10.10;;;3.03;;
10114;SDS011;5097;43.260;27.812;2023-07-20T07:57:54;7.13;;;2.95;;
10114;SDS011;5097;43.260;27.812;2023-07-20T08:00:40;7.30;;;3.15;;
10114;SDS011;5097;43.260;27.812;2023-07-20T08:03:27;5.28;;;3.42;;
10114;SDS011;5097;43.260;27.812;2023-07-20T08:06:11;5.97;;;3.03;;
10114;SDS011;5097;43.260;27.812;2023-07-20T08:08:56;10.45;;;3.38;;
10114;SDS011;5097;43.260;27.812;2023-07-20T08:11:42;8.32;;;3.22;;
10114;SDS011;5097;43.260;27.812;2023-07-20T08:14:27;7.25;;;2.97;;
10114;SDS011;5097;43.260;27.812;2023-07-20T08:17:11;3.58;;;2.20;;
10114;SDS011;5097;43.260;27.812;2023-07-20T08:19:57;6.30;;;3.28;;
10114;SDS011;5097;43.260;27.812;2023-07-20T08:22:46;6.72;;;2.83;;
10114;SDS011;5097;43.260;27.812;2023-07-20T08:25:31;5.90;;;3.28;;
10114;SDS011;5097;43.260;27.812;2023-07-20T08:28:15;5.20;;;3.35;;
10114;SDS011;5097;43.260;27.812;2023-07-20T08:31:00;6.78;;;2.83;;
10114;SDS011;5097;43.260;27.812;2023-07-20T08:33:45;7.18;;;3.20;;
10114;SDS011;5097;43.260;27.812;2023-07-20T08:36:31;6.95;;;2.88;;
10114;SDS011;5097;43.260;27.812;2023-07-20T08:39:15;6.93;;;2.80;;
10114;SDS011;5097;43.260;27.812;2023-07-20T08:42:00;5.03;;;3.00;;
10114;SDS011;5097;43.260;27.812;2023-07-20T08:44:47;6.60;;;2.78;;
10114;SDS011;5097;43.260;27.812;2023-07-20T08:47:32;6.68;;;3.45;;
10114;SDS011;5097;43.260;27.812;2023-07-20T08:50:17;5.93;;;3.35;;
10114;SDS011;5097;43.260;27.812;2023-07-20T08:53:04;4.25;;;3.22;;
10114;SDS011;5097;43.260;27.812;2023-07-20T08:55:50;5.28;;;2.88;;
10114;SDS011;5097;43.260;27.812;2023-07-20T08:58:35;4.78;;;2.70;;
10114;SDS011;5097;43.260;27.812;2023-07-20T09:01:20;7.68;;;2.45;;
10114;SDS011;5097;43.260;27.812;2023-07-20T09:04:05;8.70;;;3.28;;
10114;SDS011;5097;43.260;27.812;2023-07-20T09:06:50;6.70;;;3.00;;
10114;SDS011;5097;43.260;27.812;2023-07-20T09:09:40;6.03;;;2.90;;
10114;SDS011;5097;43.260;27.812;2023-07-20T09:12:25;7.43;;;2.78;;
10114;SDS011;5097;43.260;27.812;2023-07-20T09:15:11;6.65;;;2.72;;
10114;SDS011;5097;43.260;27.812;2023-07-20T09:17:56;5.95;;;2.92;;
10114;SDS011;5097;43.260;27.812;2023-07-20T09:20:44;7.88;;;2.83;;
10114;SDS011;5097;43.260;27.812;2023-07-20T09:23:32;5.30;;;3.30;;
10114;SDS011;5097;43.260;27.812;2023-07-20T09:26:19;4.72;;;3.80;;
10114;SDS011;5097;43.260;27.812;2023-07-20T09:29:05;5.05;;;3.65;;
10114;SDS011;5097;43.260;27.812;2023-07-20T09:31:58;10.52;;;3.45;;
10114;SDS011;5097;43.260;27.812;2023-07-20T09:34:43;6.32;;;3.33;;
10114;SDS011;5097;43.260;27.812;2023-07-20T09:37:30;5.30;;;3.72;;
10114;SDS011;5097;43.260;27.812;2023-07-20T09:40:17;13.43;;;4.70;;
10114;SDS011;5097;43.260;27.812;2023-07-20T09:43:07;6.47;;;3.88;;
10114;SDS011;5097;43.260;27.812;2023-07-20T09:45:57;5.97;;;3.35;;
10114;SDS011;5097;43.260;27.812;2023-07-20T09:48:42;6.82;;;2.90;;
10114;SDS011;5097;43.260;27.812;2023-07-20T09:51:38;5.95;;;3.47;;
10114;SDS011;5097;43.260;27.812;2023-07-20T09:54:23;5.20;;;3.10;;
10114;SDS011;5097;43.260;27.812;2023-07-20T09:57:11;9.40;;;4.13;;
10114;SDS011;5097;43.260;27.812;2023-07-20T09:59:58;5.85;;;3.25;;
10114;SDS011;5097;43.260;27.812;2023-07-20T10:02:46;6.78;;;2.65;;
10114;SDS011;5097;43.260;27.812;2023-07-20T10:05:35;4.13;;;2.85;;
10114;SDS011;5097;43.260;27.812;2023-07-20T10:08:24;3.22;;;2.92;;
10114;SDS011;5097;43.260;27.812;2023-07-20T10:11:12;8.02;;;3.20;;
10114;SDS011;5097;43.260;27.812;2023-07-20T10:13:59;7.13;;;2.50;;
10114;SDS011;5097;43.260;27.812;2023-07-20T10:16:51;5.85;;;2.83;;
10114;SDS011;5097;43.260;27.812;2023-07-20T10:19:42;7.07;;;3.10;;
10114;SDS011;5097;43.260;27.812;2023-07-20T10:22:34;6.50;;;2.95;;
10114;SDS011;5097;43.260;27.812;2023-07-20T10:25:23;4.07;;;2.75;;
10114;SDS011;5097;43.260;27.812;2023-07-20T10:28:08;3.83;;;2.58;;
10114;SDS011;5097;43.260;27.812;2023-07-20T10:30:53;5.00;;;2.25;;
10114;SDS011;5097;43.260;27.812;2023-07-20T10:33:41;4.13;;;2.67;;
10114;SDS011;5097;43.260;27.812;2023-07-20T10:36:25;4.40;;;2.40;;
10114;SDS011;5097;43.260;27.812;2023-07-20T10:39:21;7.13;;;2.55;;
10114;SDS011;5097;43.260;27.812;2023-07-20T10:42:07;5.22;;;2.60;;
10114;SDS011;5097;43.260;27.812;2023-07-20T10:44:52;6.88;;;2.38;;
10114;SDS011;5097;43.260;27.812;2023-07-20T10:47:45;3.67;;;2.90;;
10114;SDS011;5097;43.260;27.812;2023-07-20T10:50:31;4.25;;;2.80;;
10114;SDS011;5097;43.260;27.812;2023-07-20T10:53:17;3.25;;;2.40;;
10114;SDS011;5097;43.260;27.812;2023-07-20T10:56:06;4.72;;;2.40;;
10114;SDS011;5097;43.260;27.812;2023-07-20T10:58:53;6.00;;;2.95;;
10114;SDS011;5097;43.260;27.812;2023-07-20T11:01:40;5.20;;;2.67;;
10114;SDS011;5097;43.260;27.812;2023-07-20T11:04:37;3.63;;;2.35;;
10114;SDS011;5097;43.260;27.812;2023-07-20T11:07:37;7.63;;;2.92;;
10114;SDS011;5097;43.260;27.812;2023-07-20T11:10:24;4.50;;;2.60;;
10114;SDS011;5097;43.260;27.812;2023-07-20T11:13:18;7.30;;;2.72;;
10114;SDS011;5097;43.260;27.812;2023-07-20T11:16:04;5.07;;;2.70;;
10114;SDS011;5097;43.260;27.812;2023-07-20T11:18:49;3.42;;;2.63;;
10114;SDS011;5097;43.260;27.812;2023-07-20T11:21:37;7.18;;;2.60;;
10114;SDS011;5097;43.260;27.812;2023-07-20T11:24:43;4.20;;;2.70;;
10114;SDS011;5097;43.260;27.812;2023-07-20T11:27:27;5.93;;;3.33;;
10114;SDS011;5097;43.260;27.812;2023-07-20T11:30:15;4.53;;;3.28;;
10114;SDS011;5097;43.260;27.812;2023-07-20T11:32:59;3.90;;;3.30;;
10114;SDS011;5097;43.260;27.812;2023-07-20T11:35:44;4.40;;;2.60;;
10114;SDS011;5097;43.260;27.812;2023-07-20T11:38:29;11.93;;;3.47;;
10114;SDS011;5097;43.260;27.812;2023-07-20T11:41:15;7.03;;;3.42;;
10114;SDS011;5097;43.260;27.812;2023-07-20T11:43:59;6.32;;;3.40;;
10114;SDS011;5097;43.260;27.812;2023-07-20T11:46:44;7.40;;;3.70;;
10114;SDS011;5097;43.260;27.812;2023-07-20T11:49:29;4.35;;;3.20;;
10114;SDS011;5097;43.260;27.812;2023-07-20T11:52:16;5.40;;;3.60;;
10114;SDS011;5097;43.260;27.812;2023-07-20T11:55:00;3.30;;;2.67;;
10114;SDS011;5097;43.260;27.812;2023-07-20T11:58:01;5.25;;;2.92;;
10114;SDS011;5097;43.260;27.812;2023-07-20T12:00:47;5.38;;;3.20;;
10114;SDS011;5097;43.260;27.812;2023-07-20T12:03:31;5.15;;;2.80;;
10114;SDS011;5097;43.260;27.812;2023-07-20T12:06:15;4.75;;;2.65;;
10114;SDS011;5097;43.260;27.812;2023-07-20T12:09:00;4.22;;;3.05;;
10114;SDS011;5097;43.260;27.812;2023-07-20T12:11:44;5.55;;;2.63;;
10114;SDS011;5097;43.260;27.812;2023-07-20T12:14:30;6.45;;;2.80;;
10114;SDS011;5097;43.260;27.812;2023-07-20T12:17:14;5.28;;;2.80;;
10114;SDS011;5097;43.260;27.812;2023-07-20T12:19:59;4.90;;;3.10;;
10114;SDS011;5097;43.260;27.812;2023-07-20T12:22:44;3.20;;;2.90;;
10114;SDS011;5097;43.260;27.812;2023-07-20T12:25:37;4.32;;;2.75;;
10114;SDS011;5097;43.260;27.812;2023-07-20T12:28:22;5.60;;;3.45;;
10114;SDS011;5097;43.260;27.812;2023-07-20T12:31:09;4.72;;;3.50;;
10114;SDS011;5097;43.260;27.812;2023-07-20T12:33:56;4.68;;;2.88;;
10114;SDS011;5097;43.260;27.812;2023-07-20T12:36:41;6.95;;;3.63;;
10114;SDS011;5097;43.260;27.812;2023-07-20T12:39:25;6.60;;;4.78;;
10114;SDS011;5097;43.260;27.812;2023-07-20T12:42:10;7.97;;;4.95;;
10114;SDS011;5097;43.260;27.812;2023-07-20T12:44:54;5.70;;;4.80;;
10114;SDS011;5097;43.260;27.812;2023-07-20T12:47:39;6.80;;;4.60;;
10114;SDS011;5097;43.260;27.812;2023-07-20T12:50:26;8.23;;;4.30;;
10114;SDS011;5097;43.260;27.812;2023-07-20T12:53:10;10.20;;;4.53;;
10114;SDS011;5097;43.260;27.812;2023-07-20T12:55:54;10.68;;;4.68;;
10114;SDS011;5097;43.260;27.812;2023-07-20T12:58:38;10.50;;;4.60;;
10114;SDS011;5097;43.260;27.812;2023-07-20T13:01:23;11.65;;;4.60;;
10114;SDS011;5097;43.260;27.812;2023-07-20T13:04:10;5.93;;;4.00;;
10114;SDS011;5097;43.260;27.812;2023-07-20T13:06:55;8.40;;;4.53;;
10114;SDS011;5097;43.260;27.812;2023-07-20T13:09:40;7.00;;;4.43;;
10114;SDS011;5097;43.260;27.812;2023-07-20T13:12:24;8.93;;;4.50;;
10114;SDS011;5097;43.260;27.812;2023-07-20T13:15:09;7.50;;;4.63;;
10114;SDS011;5097;43.260;27.812;2023-07-20T13:17:54;9.27;;;4.50;;
10114;SDS011;5097;43.260;27.812;2023-07-20T13:20:40;6.55;;;4.60;;
10114;SDS011;5097;43.260;27.812;2023-07-20T13:23:24;10.55;;;4.88;;
10114;SDS011;5097;43.260;27.812;2023-07-20T13:26:09;6.47;;;4.22;;
10114;SDS011;5097;43.260;27.812;2023-07-20T13:28:54;12.25;;;4.65;;
10114;SDS011;5097;43.260;27.812;2023-07-20T13:31:39;7.78;;;4.57;;
10114;SDS011;5097;43.260;27.812;2023-07-20T13:34:25;9.85;;;4.72;;
10114;SDS011;5097;43.260;27.812;2023-07-20T13:37:12;10.60;;;4.28;;
10114;SDS011;5097;43.260;27.812;2023-07-20T13:39:56;11.40;;;4.57;;
10114;SDS011;5097;43.260;27.812;2023-07-20T13:42:41;9.70;;;4.43;;
10114;SDS011;5097;43.260;27.812;2023-07-20T13:45:26;8.82;;;4.25;;
10114;SDS011;5097;43.260;27.812;2023-07-20T13:48:10;8.15;;;4.20;;
10114;SDS011;5097;43.260;27.812;2023-07-20T13:50:58;13.32;;;4.78;;
10114;SDS011;5097;43.260;27.812;2023-07-20T13:53:47;6.00;;;3.85;;
10114;SDS011;5097;43.260;27.812;2023-07-20T13:56:33;9.80;;;4.15;;
10114;SDS011;5097;43.260;27.812;2023-07-20T13:59:17;8.20;;;4.88;;
10114;SDS011;5097;43.260;27.812;2023-07-20T14:02:02;5.45;;;4.60;;
10114;SDS011;5097;43.260;27.812;2023-07-20T14:04:50;8.68;;;4.85;;
10114;SDS011;5097;43.260;27.812;2023-07-20T14:07:54;9.07;;;5.15;;
10114;SDS011;5097;43.260;27.812;2023-07-20T14:10:39;8.10;;;4.43;;
10114;SDS011;5097;43.260;27.812;2023-07-20T14:13:26;5.93;;;4.80;;
10114;SDS011;5097;43.260;27.812;2023-07-20T14:16:28;10.23;;;5.15;;
10114;SDS011;5097;43.260;27.812;2023-07-20T14:19:15;10.60;;;5.28;;
10114;SDS011;5097;43.260;27.812;2023-07-20T14:21:59;8.93;;;4.82;;
10114;SDS011;5097;43.260;27.812;2023-07-20T14:24:44;8.75;;;4.95;;
10114;SDS011;5097;43.260;27.812;2023-07-20T14:27:29;9.60;;;5.55;;
10114;SDS011;5097;43.260;27.812;2023-07-20T14:30:14;10.45;;;4.57;;
10114;SDS011;5097;43.260;27.812;2023-07-20T14:32:58;12.00;;;4.68;;
10114;SDS011;5097;43.260;27.812;2023-07-20T14:35:42;7.60;;;5.03;;
10114;SDS011;5097;43.260;27.812;2023-07-20T14:38:27;9.27;;;5.03;;
10114;SDS011;5097;43.260;27.812;2023-07-20T14:41:11;8.70;;;4.97;;
10114;SDS011;5097;43.260;27.812;2023-07-20T14:43:57;9.52;;;5.55;;
10114;SDS011;5097;43.260;27.812;2023-07-20T14:46:41;9.30;;;4.68;;
10114;SDS011;5097;43.260;27.812;2023-07-20T14:49:39;7.53;;;5.18;;
10114;SDS011;5097;43.260;27.812;2023-07-20T14:52:24;8.52;;;5.15;;
10114;SDS011;5097;43.260;27.812;2023-07-20T14:55:11;8.23;;;5.68;;
10114;SDS011;5097;43.260;27.812;2023-07-20T14:57:55;14.70;;;5.40;;
10114;SDS011;5097;43.260;27.812;2023-07-20T15:00:40;10.80;;;5.72;;
10114;SDS011;5097;43.260;27.812;2023-07-20T15:03:24;10.82;;;6.50;;
10114;SDS011;5097;43.260;27.812;2023-07-20T15:06:10;8.07;;;5.88;;
10114;SDS011;5097;43.260;27.812;2023-07-20T15:08:54;8.23;;;5.50;;
10114;SDS011;5097;43.260;27.812;2023-07-20T15:11:38;9.35;;;5.70;;
10114;SDS011;5097;43.260;27.812;2023-07-20T15:14:22;10.82;;;5.28;;
10114;SDS011;5097;43.260;27.812;2023-07-20T15:17:08;11.32;;;5.40;;
10114;SDS011;5097;43.260;27.812;2023-07-20T15:19:52;8.13;;;5.93;;
10114;SDS011;5097;43.260;27.812;2023-07-20T15:22:37;8.60;;;5.20;;
10114;SDS011;5097;43.260;27.812;2023-07-20T15:25:22;9.70;;;5.25;;
10114;SDS011;5097;43.260;27.812;2023-07-20T15:28:06;7.85;;;4.93;;
10114;SDS011;5097;43.260;27.812;2023-07-20T15:30:50;6.28;;;5.20;;
10114;SDS011;5097;43.260;27.812;2023-07-20T15:33:43;9.23;;;5.57;;
10114;SDS011;5097;43.260;27.812;2023-07-20T15:36:27;7.90;;;5.32;;
10114;SDS011;5097;43.260;27.812;2023-07-20T15:39:11;6.78;;;5.38;;
10114;SDS011;5097;43.260;27.812;2023-07-20T15:41:58;7.32;;;5.47;;
10114;SDS011;5097;43.260;27.812;2023-07-20T15:44:42;13.48;;;6.22;;
10114;SDS011;5097;43.260;27.812;2023-07-20T15:47:26;7.50;;;5.18;;
10114;SDS011;5097;43.260;27.812;2023-07-20T15:50:12;7.35;;;6.50;;
10114;SDS011;5097;43.260;27.812;2023-07-20T15:52:56;21.08;;;8.43;;
10114;SDS011;5097;43.260;27.812;2023-07-20T15:55:41;14.82;;;8.70;;
10114;SDS011;5097;43.260;27.812;2023-07-20T15:58:25;13.70;;;9.27;;
10114;SDS011;5097;43.260;27.812;2023-07-20T16:01:09;12.68;;;8.85;;
10114;SDS011;5097;43.260;27.812;2023-07-20T16:03:54;14.80;;;8.90;;
10114;SDS011;5097;43.260;27.812;2023-07-20T16:06:40;11.57;;;9.13;;
10114;SDS011;5097;43.260;27.812;2023-07-20T16:09:25;9.60;;;8.63;;
10114;SDS011;5097;43.260;27.812;2023-07-20T16:12:10;10.13;;;9.05;;
10114;SDS011;5097;43.260;27.812;2023-07-20T16:14:54;9.60;;;8.70;;
10114;SDS011;5097;43.260;27.812;2023-07-20T16:17:41;15.02;;;8.10;;
10114;SDS011;5097;43.260;27.812;2023-07-20T16:20:27;12.25;;;8.20;;
10114;SDS011;5097;43.260;27.812;2023-07-20T16:23:17;11.10;;;8.45;;
10114;SDS011;5097;43.260;27.812;2023-07-20T16:26:01;11.10;;;8.38;;
10114;SDS011;5097;43.260;27.812;2023-07-20T16:28:46;8.75;;;7.95;;
10114;SDS011;5097;43.260;27.812;2023-07-20T16:31:30;10.05;;;8.55;;
10114;SDS011;5097;43.260;27.812;2023-07-20T16:34:14;15.43;;;8.65;;
10114;SDS011;5097;43.260;27.812;2023-07-20T16:36:58;12.32;;;8.02;;
10114;SDS011;5097;43.260;27.812;2023-07-20T16:39:44;10.45;;;8.77;;
10114;SDS011;5097;43.260;27.812;2023-07-20T16:42:29;12.25;;;9.15;;
10114;SDS011;5097;43.260;27.812;2023-07-20T16:45:16;12.15;;;9.48;;
10114;SDS011;5097;43.260;27.812;2023-07-20T16:48:00;13.25;;;9.43;;
10114;SDS011;5097;43.260;27.812;2023-07-20T16:50:45;10.25;;;9.13;;
10114;SDS011;5097;43.260;27.812;2023-07-20T16:53:31;12.05;;;9.77;;